sensor_id;sensor_type;location;lat;lon;timestamp;pressure;altitude;pressure_sealevel;temperature;humidity
41467;BME280;27205;53.690;19.948;2023-02-07T00:02:15;102302.19;;;0.71;100.00
41467;BME280;27205;53.690;19.948;2023-02-07T00:07:19;102304.39;;;0.73;100.00
41467;BME280;27205;53.690;19.948;2023-02-07T00:12:22;102295.77;;;0.74;100.00
41467;BME280;27205;53.690;19.948;2023-02-07T00:17:28;102301.59;;;0.78;100.00
41467;BME280;27205;53.690;19.948;2023-02-07T00:22:32;102301.47;;;0.82;100.00
41467;BME280;27205;53.690;19.948;2023-02-07T00:27:35;102301.61;;;0.82;100.00
41467;BME280;27205;53.690;19.948;2023-02-07T00:32:38;102304.73;;;0.80;100.00
41467;BME280;27205;53.690;19.948;2023-02-07T00:37:42;102309.63;;;0.80;100.00
41467;BME280;27205;53.690;19.948;2023-02-07T00:42:45;102302.66;;;0.77;100.00
41467;BME280;27205;53.690;19.948;2023-02-07T00:47:48;102299.92;;;0.79;100.00
41467;BME280;27205;53.690;19.948;2023-02-07T00:52:51;102301.75;;;0.81;100.00
41467;BME280;27205;53.690;19.948;2023-02-07T00:57:55;102312.04;;;0.83;100.00
41467;BME280;27205;53.690;19.948;2023-02-07T01:02:58;102313.14;;;0.84;99.96
41467;BME280;27205;53.690;19.948;2023-02-07T01:08:01;102312.82;;;0.83;99.86
41467;BME280;27205;53.690;19.948;2023-02-07T01:13:05;102305.70;;;0.83;99.69
41467;BME280;27205;53.690;19.948;2023-02-07T01:18:08;102312.67;;;0.83;99.47
41467;BME280;27205;53.690;19.948;2023-02-07T01:23:12;102298.52;;;0.82;99.06
41467;BME280;27205;53.690;19.948;2023-02-07T01:28:17;102302.95;;;0.82;99.18
41467;BME280;27205;53.690;19.948;2023-02-07T01:33:20;102298.91;;;0.79;98.82
41467;BME280;27205;53.690;19.948;2023-02-07T01:38:23;102293.32;;;0.78;98.65
41467;BME280;27205;53.690;19.948;2023-02-07T01:43:27;102291.98;;;0.81;98.90
41467;BME280;27205;53.690;19.948;2023-02-07T01:48:33;102297.38;;;0.83;99.03
41467;BME280;27205;53.690;19.948;2023-02-07T01:53:37;102297.29;;;0.82;98.68
41467;BME280;27205;53.690;19.948;2023-02-07T01:58:42;102295.99;;;0.82;98.60
41467;BME280;27205;53.690;19.948;2023-02-07T02:03:48;102288.77;;;0.79;98.20
41467;BME280;27205;53.690;19.948;2023-02-07T02:08:57;102286.66;;;0.76;98.36
41467;BME280;27205;53.690;19.948;2023-02-07T02:19:23;102277.18;;;0.78;98.78
41467;BME280;27205;53.690;19.948;2023-02-07T02:25:11;102269.54;;;0.82;99.19
41467;BME280;27205;53.690;19.948;2023-02-07T02:41:08;102276.36;;;0.84;99.07
41467;BME280;27205;53.690;19.948;2023-02-07T02:46:20;102276.59;;;0.85;98.81
41467;BME280;27205;53.690;19.948;2023-02-07T02:51:28;102284.86;;;0.83;98.43
41467;BME280;27205;53.690;19.948;2023-02-07T03:07:40;102269.74;;;0.78;98.01
41467;BME280;27205;53.690;19.948;2023-02-07T03:13:35;102277.95;;;0.78;97.94
41467;BME280;27205;53.690;19.948;2023-02-07T03:18:29;102289.77;;;0.76;97.69
41467;BME280;27205;53.690;19.948;2023-02-07T03:23:36;102284.79;;;0.75;97.86
41467;BME280;27205;53.690;19.948;2023-02-07T03:28:41;102259.42;;;0.77;97.93
41467;BME280;27205;53.690;19.948;2023-02-07T03:33:47;102261.75;;;0.77;97.99
41467;BME280;27205;53.690;19.948;2023-02-07T03:38:53;102260.27;;;0.77;98.16
41467;BME280;27205;53.690;19.948;2023-02-07T03:43:58;102259.87;;;0.80;98.35
41467;BME280;27205;53.690;19.948;2023-02-07T03:49:09;102257.06;;;0.82;98.23
41467;BME280;27205;53.690;19.948;2023-02-07T03:54:13;102252.30;;;0.84;98.56
41467;BME280;27205;53.690;19.948;2023-02-07T03:59:17;102252.55;;;0.84;98.60
41467;BME280;27205;53.690;19.948;2023-02-07T04:04:21;102251.10;;;0.80;98.48
41467;BME280;27205;53.690;19.948;2023-02-07T04:09:24;102254.70;;;0.77;98.10
41467;BME280;27205;53.690;19.948;2023-02-07T04:14:28;102250.94;;;0.76;98.02
41467;BME280;27205;53.690;19.948;2023-02-07T04:19:32;102248.84;;;0.75;98.05
41467;BME280;27205;53.690;19.948;2023-02-07T04:24:35;102245.01;;;0.74;98.29
41467;BME280;27205;53.690;19.948;2023-02-07T04:29:39;102246.27;;;0.75;98.46
41467;BME280;27205;53.690;19.948;2023-02-07T04:34:42;102244.35;;;0.76;98.14
41467;BME280;27205;53.690;19.948;2023-02-07T04:39:46;102258.69;;;0.76;98.07
41467;BME280;27205;53.690;19.948;2023-02-07T04:44:49;102262.45;;;0.74;98.03
41467;BME280;27205;53.690;19.948;2023-02-07T04:49:53;102267.11;;;0.72;97.82
41467;BME280;27205;53.690;19.948;2023-02-07T04:54:57;102261.04;;;0.71;97.91
41467;BME280;27205;53.690;19.948;2023-02-07T05:00:01;102261.17;;;0.70;97.70
41467;BME280;27205;53.690;19.948;2023-02-07T05:05:06;102252.30;;;0.69;97.67
41467;BME280;27205;53.690;19.948;2023-02-07T05:10:09;102249.50;;;0.68;97.60
41467;BME280;27205;53.690;19.948;2023-02-07T05:15:13;102257.06;;;0.67;97.78
41467;BME280;27205;53.690;19.948;2023-02-07T05:20:18;102258.09;;;0.65;97.85
41467;BME280;27205;53.690;19.948;2023-02-07T05:25:21;102265.69;;;0.65;97.77
41467;BME280;27205;53.690;19.948;2023-02-07T05:30:25;102265.70;;;0.66;97.87
41467;BME280;27205;53.690;19.948;2023-02-07T05:35:40;102262.26;;;0.67;97.47
41467;BME280;27205;53.690;19.948;2023-02-07T05:40:44;102263.39;;;0.66;97.37
41467;BME280;27205;53.690;19.948;2023-02-07T05:45:48;102256.91;;;0.64;97.52
41467;BME280;27205;53.690;19.948;2023-02-07T05:50:52;102250.52;;;0.63;97.14
41467;BME280;27205;53.690;19.948;2023-02-07T05:55:55;102250.11;;;0.63;97.33
41467;BME280;27205;53.690;19.948;2023-02-07T06:00:59;102257.55;;;0.63;97.17
41467;BME280;27205;53.690;19.948;2023-02-07T06:06:03;102264.73;;;0.64;97.73
41467;BME280;27205;53.690;19.948;2023-02-07T06:11:06;102263.70;;;0.66;97.66
41467;BME280;27205;53.690;19.948;2023-02-07T06:16:10;102271.36;;;0.68;97.24
41467;BME280;27205;53.690;19.948;2023-02-07T06:21:13;102273.03;;;0.73;97.43
41467;BME280;27205;53.690;19.948;2023-02-07T06:26:17;102275.52;;;0.73;97.49
41467;BME280;27205;53.690;19.948;2023-02-07T06:31:21;102281.23;;;0.76;97.59
41467;BME280;27205;53.690;19.948;2023-02-07T06:36:25;102275.73;;;0.82;97.48
41467;BME280;27205;53.690;19.948;2023-02-07T06:41:28;102276.16;;;0.83;97.48
41467;BME280;27205;53.690;19.948;2023-02-07T06:46:32;102279.73;;;0.87;97.44
41467;BME280;27205;53.690;19.948;2023-02-07T06:51:36;102288.92;;;0.88;97.44
41467;BME280;27205;53.690;19.948;2023-02-07T06:56:39;102300.09;;;0.88;97.22
41467;BME280;27205;53.690;19.948;2023-02-07T07:01:43;102309.75;;;0.90;97.29
41467;BME280;27205;53.690;19.948;2023-02-07T07:06:46;102314.92;;;0.98;97.30
41467;BME280;27205;53.690;19.948;2023-02-07T07:11:50;102328.17;;;1.07;97.40
41467;BME280;27205;53.690;19.948;2023-02-07T07:16:54;102333.69;;;1.16;97.07
41467;BME280;27205;53.690;19.948;2023-02-07T07:21:58;102342.80;;;1.26;97.08
41467;BME280;27205;53.690;19.948;2023-02-07T07:27:03;102341.92;;;1.32;96.68
41467;BME280;27205;53.690;19.948;2023-02-07T07:32:06;102339.52;;;1.37;96.33
41467;BME280;27205;53.690;19.948;2023-02-07T07:37:13;102339.40;;;1.51;96.46
41467;BME280;27205;53.690;19.948;2023-02-07T07:42:16;102342.79;;;1.60;96.21
41467;BME280;27205;53.690;19.948;2023-02-07T07:47:20;102348.27;;;1.71;96.19
41467;BME280;27205;53.690;19.948;2023-02-07T07:52:24;102354.14;;;1.80;95.68
41467;BME280;27205;53.690;19.948;2023-02-07T07:57:28;102353.17;;;1.88;95.76
41467;BME280;27205;53.690;19.948;2023-02-07T08:02:31;102349.75;;;1.98;95.21
41467;BME280;27205;53.690;19.948;2023-02-07T08:07:35;102336.55;;;2.04;94.96
41467;BME280;27205;53.690;19.948;2023-02-07T08:12:38;102331.58;;;2.12;94.92
41467;BME280;27205;53.690;19.948;2023-02-07T08:17:44;102340.02;;;2.17;94.61
41467;BME280;27205;53.690;19.948;2023-02-07T08:22:47;102339.98;;;2.37;94.72
41467;BME280;27205;53.690;19.948;2023-02-07T08:27:52;102337.08;;;2.55;94.79
41467;BME280;27205;53.690;19.948;2023-02-07T08:32:55;102337.17;;;2.71;94.44
41467;BME280;27205;53.690;19.948;2023-02-07T08:37:59;102337.23;;;2.89;94.08
41467;BME280;27205;53.690;19.948;2023-02-07T08:43:03;102327.54;;;2.95;93.48
41467;BME280;27205;53.690;19.948;2023-02-07T08:48:09;102323.23;;;2.94;93.30
41467;BME280;27205;53.690;19.948;2023-02-07T08:53:13;102326.54;;;2.95;93.56
41467;BME280;27205;53.690;19.948;2023-02-07T08:58:16;102321.31;;;2.99;93.39
41467;BME280;27205;53.690;19.948;2023-02-07T09:03:22;102311.91;;;3.08;93.41
41467;BME280;27205;53.690;19.948;2023-02-07T09:08:26;102310.30;;;3.36;93.43
41467;BME280;27205;53.690;19.948;2023-02-07T09:13:29;102321.91;;;3.51;92.84
41467;BME280;27205;53.690;19.948;2023-02-07T09:18:33;102330.97;;;3.68;92.10
41467;BME280;27205;53.690;19.948;2023-02-07T09:23:37;102324.30;;;3.80;91.43
41467;BME280;27205;53.690;19.948;2023-02-07T09:28:40;102320.98;;;3.92;90.95
41467;BME280;27205;53.690;19.948;2023-02-07T09:33:44;102317.40;;;3.97;90.38
41467;BME280;27205;53.690;19.948;2023-02-07T09:38:48;102320.23;;;4.16;90.62
41467;BME280;27205;53.690;19.948;2023-02-07T09:44:00;102321.09;;;4.28;89.98
41467;BME280;27205;53.690;19.948;2023-02-07T09:49:13;102315.86;;;4.33;89.51
41467;BME280;27205;53.690;19.948;2023-02-07T09:54:28;102316.06;;;4.30;88.78
41467;BME280;27205;53.690;19.948;2023-02-07T09:59:58;102328.04;;;4.22;88.34
41467;BME280;27205;53.690;19.948;2023-02-07T10:05:31;102336.21;;;4.27;88.02
41467;BME280;27205;53.690;19.948;2023-02-07T10:10:45;102334.74;;;4.29;87.64
41467;BME280;27205;53.690;19.948;2023-02-07T10:31:50;102343.27;;;4.56;87.44
41467;BME280;27205;53.690;19.948;2023-02-07T10:36:56;102345.15;;;4.69;86.64
41467;BME280;27205;53.690;19.948;2023-02-07T10:42:00;102347.61;;;4.78;86.62
41467;BME280;27205;53.690;19.948;2023-02-07T10:47:04;102345.40;;;4.90;86.21
41467;BME280;27205;53.690;19.948;2023-02-07T10:52:29;102356.14;;;5.02;86.46
41467;BME280;27205;53.690;19.948;2023-02-07T10:57:34;102356.00;;;5.10;85.77
41467;BME280;27205;53.690;19.948;2023-02-07T11:02:43;102353.55;;;5.15;86.07
41467;BME280;27205;53.690;19.948;2023-02-07T11:13:04;102336.27;;;5.05;85.23
41467;BME280;27205;53.690;19.948;2023-02-07T11:18:30;102335.35;;;5.07;85.34
41467;BME280;27205;53.690;19.948;2023-02-07T11:23:42;102334.08;;;5.10;85.24
41467;BME280;27205;53.690;19.948;2023-02-07T11:28:52;102336.44;;;5.22;86.17
41467;BME280;27205;53.690;19.948;2023-02-07T11:34:07;102330.77;;;5.41;86.20
41467;BME280;27205;53.690;19.948;2023-02-07T11:39:15;102335.06;;;5.41;85.44
41467;BME280;27205;53.690;19.948;2023-02-07T11:44:23;102335.75;;;5.49;85.91
41467;BME280;27205;53.690;19.948;2023-02-07T11:49:31;102343.78;;;5.21;85.07
41467;BME280;27205;53.690;19.948;2023-02-07T11:54:48;102337.86;;;5.00;84.77
41467;BME280;27205;53.690;19.948;2023-02-07T12:00:19;102335.29;;;4.86;84.63
41467;BME280;27205;53.690;19.948;2023-02-07T12:05:32;102332.34;;;4.73;83.88
41467;BME280;27205;53.690;19.948;2023-02-07T12:10:40;102312.94;;;4.68;84.34
41467;BME280;27205;53.690;19.948;2023-02-07T12:32:09;102323.50;;;4.52;82.84
41467;BME280;27205;53.690;19.948;2023-02-07T12:42:54;102337.88;;;4.41;82.74
41467;BME280;27205;53.690;19.948;2023-02-07T12:48:05;102331.15;;;4.40;82.29
41467;BME280;27205;53.690;19.948;2023-02-07T12:59:11;102327.63;;;4.45;82.52
41467;BME280;27205;53.690;19.948;2023-02-07T13:25:53;102321.25;;;4.93;82.76
41467;BME280;27205;53.690;19.948;2023-02-07T13:31:00;102323.46;;;4.74;82.23
41467;BME280;27205;53.690;19.948;2023-02-07T13:41:30;102325.45;;;4.45;82.19
41467;BME280;27205;53.690;19.948;2023-02-07T13:52:09;102330.16;;;4.24;82.38
41467;BME280;27205;53.690;19.948;2023-02-07T13:57:42;102331.12;;;4.26;82.65
41467;BME280;27205;53.690;19.948;2023-02-07T14:03:05;102340.56;;;4.15;81.69
41467;BME280;27205;53.690;19.948;2023-02-07T14:13:32;102340.48;;;3.74;81.65
41467;BME280;27205;53.690;19.948;2023-02-07T14:18:38;102337.67;;;3.49;81.14
41467;BME280;27205;53.690;19.948;2023-02-07T14:29:40;102336.05;;;3.27;81.54
41467;BME280;27205;53.690;19.948;2023-02-07T14:45:35;102358.36;;;3.17;81.09
41467;BME280;27205;53.690;19.948;2023-02-07T14:50:50;102358.11;;;3.04;81.17
41467;BME280;27205;53.690;19.948;2023-02-07T14:55:59;102359.30;;;2.85;80.32
41467;BME280;27205;53.690;19.948;2023-02-07T15:01:11;102365.73;;;2.69;80.63
41467;BME280;27205;53.690;19.948;2023-02-07T15:06:18;102366.05;;;2.57;80.49
41467;BME280;27205;53.690;19.948;2023-02-07T15:16:23;102373.81;;;2.31;80.20
41467;BME280;27205;53.690;19.948;2023-02-07T15:22:04;102377.98;;;2.20;80.36
41467;BME280;27205;53.690;19.948;2023-02-07T15:27:27;102377.70;;;2.14;80.30
41467;BME280;27205;53.690;19.948;2023-02-07T15:32:32;102380.18;;;2.14;80.21
41467;BME280;27205;53.690;19.948;2023-02-07T15:37:35;102381.25;;;2.10;80.21
41467;BME280;27205;53.690;19.948;2023-02-07T15:42:54;102385.05;;;2.03;80.26
41467;BME280;27205;53.690;19.948;2023-02-07T15:48:03;102387.52;;;1.96;80.36
41467;BME280;27205;53.690;19.948;2023-02-07T15:53:18;102396.13;;;1.92;80.46
41467;BME280;27205;53.690;19.948;2023-02-07T15:58:23;102397.20;;;1.82;80.41
41467;BME280;27205;53.690;19.948;2023-02-07T16:03:29;102402.42;;;1.67;80.47
41467;BME280;27205;53.690;19.948;2023-02-07T16:08:39;102406.99;;;1.55;80.39
41467;BME280;27205;53.690;19.948;2023-02-07T16:13:51;102415.56;;;1.48;80.70
41467;BME280;27205;53.690;19.948;2023-02-07T16:19:16;102422.06;;;1.47;80.83
41467;BME280;27205;53.690;19.948;2023-02-07T16:24:23;102427.23;;;1.54;81.17
41467;BME280;27205;53.690;19.948;2023-02-07T16:29:28;102424.35;;;1.57;81.23
41467;BME280;27205;53.690;19.948;2023-02-07T16:34:30;102428.74;;;1.59;81.29
41467;BME280;27205;53.690;19.948;2023-02-07T16:39:33;102431.40;;;1.45;81.11
41467;BME280;27205;53.690;19.948;2023-02-07T16:44:35;102436.08;;;1.34;81.06
41467;BME280;27205;53.690;19.948;2023-02-07T16:49:38;102436.67;;;1.30;81.30
41467;BME280;27205;53.690;19.948;2023-02-07T16:54:40;102441.23;;;1.27;81.29
41467;BME280;27205;53.690;19.948;2023-02-07T16:59:44;102439.73;;;1.25;81.39
41467;BME280;27205;53.690;19.948;2023-02-07T17:04:46;102437.99;;;1.27;81.60
41467;BME280;27205;53.690;19.948;2023-02-07T17:09:48;102444.88;;;1.29;81.62
41467;BME280;27205;53.690;19.948;2023-02-07T17:14:51;102445.90;;;1.24;81.32
41467;BME280;27205;53.690;19.948;2023-02-07T17:19:54;102443.21;;;1.20;81.41
41467;BME280;27205;53.690;19.948;2023-02-07T17:24:56;102438.11;;;1.12;81.26
41467;BME280;27205;53.690;19.948;2023-02-07T17:30:00;102440.45;;;1.04;81.30
41467;BME280;27205;53.690;19.948;2023-02-07T17:35:06;102440.49;;;0.95;81.29
41467;BME280;27205;53.690;19.948;2023-02-07T17:45:23;102449.34;;;0.82;81.26
41467;BME280;27205;53.690;19.948;2023-02-07T17:50:32;102460.27;;;0.72;81.32
41467;BME280;27205;53.690;19.948;2023-02-07T17:55:35;102464.99;;;0.72;81.48
41467;BME280;27205;53.690;19.948;2023-02-07T18:00:38;102477.04;;;0.75;81.58
41467;BME280;27205;53.690;19.948;2023-02-07T18:05:41;102476.50;;;0.81;81.65
41467;BME280;27205;53.690;19.948;2023-02-07T18:10:43;102478.25;;;0.79;81.62
41467;BME280;27205;53.690;19.948;2023-02-07T18:15:46;102483.29;;;0.79;81.89
41467;BME280;27205;53.690;19.948;2023-02-07T18:20:48;102488.27;;;0.75;81.69
41467;BME280;27205;53.690;19.948;2023-02-07T18:25:50;102498.85;;;0.72;81.73
41467;BME280;27205;53.690;19.948;2023-02-07T18:30:53;102503.71;;;0.68;81.80
41467;BME280;27205;53.690;19.948;2023-02-07T18:35:56;102509.75;;;0.66;81.56
41467;BME280;27205;53.690;19.948;2023-02-07T18:40:58;102519.95;;;0.64;81.58
41467;BME280;27205;53.690;19.948;2023-02-07T18:46:06;102519.73;;;0.65;81.90
41467;BME280;27205;53.690;19.948;2023-02-07T18:51:10;102515.75;;;0.66;81.86
41467;BME280;27205;53.690;19.948;2023-02-07T18:56:16;102508.02;;;0.64;81.86
41467;BME280;27205;53.690;19.948;2023-02-07T19:01:19;102507.36;;;0.63;81.83
41467;BME280;27205;53.690;19.948;2023-02-07T19:06:24;102506.37;;;0.64;82.07
41467;BME280;27205;53.690;19.948;2023-02-07T19:11:26;102510.95;;;0.69;82.21
41467;BME280;27205;53.690;19.948;2023-02-07T19:16:28;102515.42;;;0.76;82.35
41467;BME280;27205;53.690;19.948;2023-02-07T19:21:31;102511.34;;;0.82;82.40
41467;BME280;27205;53.690;19.948;2023-02-07T19:26:34;102508.67;;;0.86;82.46
41467;BME280;27205;53.690;19.948;2023-02-07T19:31:36;102505.94;;;0.88;82.42
41467;BME280;27205;53.690;19.948;2023-02-07T19:36:41;102510.73;;;0.88;82.53
41467;BME280;27205;53.690;19.948;2023-02-07T19:41:43;102518.97;;;0.85;82.68
41467;BME280;27205;53.690;19.948;2023-02-07T19:46:45;102522.67;;;0.85;82.59
41467;BME280;27205;53.690;19.948;2023-02-07T19:51:48;102525.65;;;0.83;82.27
41467;BME280;27205;53.690;19.948;2023-02-07T19:56:52;102530.59;;;0.77;82.39
41467;BME280;27205;53.690;19.948;2023-02-07T20:01:54;102534.32;;;0.70;82.56
41467;BME280;27205;53.690;19.948;2023-02-07T20:06:56;102533.82;;;0.62;82.52
41467;BME280;27205;53.690;19.948;2023-02-07T20:12:00;102527.83;;;0.51;82.42
41467;BME280;27205;53.690;19.948;2023-02-07T20:17:03;102529.57;;;0.43;82.35
41467;BME280;27205;53.690;19.948;2023-02-07T20:22:05;102532.77;;;0.33;82.72
41467;BME280;27205;53.690;19.948;2023-02-07T20:27:07;102534.42;;;0.25;82.75
41467;BME280;27205;53.690;19.948;2023-02-07T20:32:10;102536.77;;;0.14;82.69
41467;BME280;27205;53.690;19.948;2023-02-07T20:37:14;102540.86;;;0.10;82.69
41467;BME280;27205;53.690;19.948;2023-02-07T20:42:17;102538.38;;;0.09;82.83
41467;BME280;27205;53.690;19.948;2023-02-07T20:47:20;102541.92;;;0.11;82.86
41467;BME280;27205;53.690;19.948;2023-02-07T20:52:23;102541.39;;;0.11;82.98
41467;BME280;27205;53.690;19.948;2023-02-07T20:57:25;102543.75;;;0.22;82.80
41467;BME280;27205;53.690;19.948;2023-02-07T21:02:28;102549.36;;;0.27;82.54
41467;BME280;27205;53.690;19.948;2023-02-07T21:07:30;102552.48;;;0.30;82.70
41467;BME280;27205;53.690;19.948;2023-02-07T21:12:39;102554.51;;;0.33;82.91
41467;BME280;27205;53.690;19.948;2023-02-07T21:18:16;102566.78;;;0.39;83.00
41467;BME280;27205;53.690;19.948;2023-02-07T21:23:18;102572.77;;;0.49;82.97
41467;BME280;27205;53.690;19.948;2023-02-07T21:28:20;102574.66;;;0.53;83.06
41467;BME280;27205;53.690;19.948;2023-02-07T21:33:23;102574.17;;;0.59;83.15
41467;BME280;27205;53.690;19.948;2023-02-07T21:38:25;102587.71;;;0.71;83.33
41467;BME280;27205;53.690;19.948;2023-02-07T21:43:27;102589.94;;;0.82;83.40
41467;BME280;27205;53.690;19.948;2023-02-07T21:48:30;102594.92;;;0.88;83.49
41467;BME280;27205;53.690;19.948;2023-02-07T21:53:33;102601.24;;;0.94;83.43
41467;BME280;27205;53.690;19.948;2023-02-07T21:58:35;102606.31;;;0.95;83.52
41467;BME280;27205;53.690;19.948;2023-02-07T22:03:40;102613.31;;;1.00;83.95
41467;BME280;27205;53.690;19.948;2023-02-07T22:08:46;102618.92;;;1.12;83.96
41467;BME280;27205;53.690;19.948;2023-02-07T22:13:50;102622.32;;;1.21;83.89
41467;BME280;27205;53.690;19.948;2023-02-07T22:18:55;102624.41;;;1.31;84.04
41467;BME280;27205;53.690;19.948;2023-02-07T22:23:57;102624.71;;;1.38;84.09
41467;BME280;27205;53.690;19.948;2023-02-07T22:29:01;102622.33;;;1.44;83.96
41467;BME280;27205;53.690;19.948;2023-02-07T22:34:09;102617.36;;;1.52;83.75
41467;BME280;27205;53.690;19.948;2023-02-07T22:39:14;102619.52;;;1.60;83.68
41467;BME280;27205;53.690;19.948;2023-02-07T22:44:17;102616.00;;;1.70;83.90
41467;BME280;27205;53.690;19.948;2023-02-07T22:49:19;102626.53;;;1.80;83.97
41467;BME280;27205;53.690;19.948;2023-02-07T22:54:21;102632.42;;;1.82;83.97
41467;BME280;27205;53.690;19.948;2023-02-07T22:59:23;102631.45;;;1.83;83.81
41467;BME280;27205;53.690;19.948;2023-02-07T23:04:25;102631.92;;;1.81;83.82
41467;BME280;27205;53.690;19.948;2023-02-07T23:09:28;102638.17;;;1.78;83.78
41467;BME280;27205;53.690;19.948;2023-02-07T23:14:30;102640.62;;;1.76;83.87
41467;BME280;27205;53.690;19.948;2023-02-07T23:19:32;102640.45;;;1.73;83.84
41467;BME280;27205;53.690;19.948;2023-02-07T23:24:34;102642.50;;;1.72;83.82
41467;BME280;27205;53.690;19.948;2023-02-07T23:29:37;102641.38;;;1.70;83.94
41467;BME280;27205;53.690;19.948;2023-02-07T23:34:39;102636.98;;;1.71;84.05
41467;BME280;27205;53.690;19.948;2023-02-07T23:39:41;102639.16;;;1.72;84.07
41467;BME280;27205;53.690;19.948;2023-02-07T23:44:44;102638.77;;;1.71;84.08
41467;BME280;27205;53.690;19.948;2023-02-07T23:49:46;102644.89;;;1.65;83.83
41467;BME280;27205;53.690;19.948;2023-02-07T23:54:48;102645.54;;;1.61;83.92
41467;BME280;27205;53.690;19.948;2023-02-07T23:59:51;102649.66;;;1.53;83.95
